createdAt,value
2018-01-23T00:01:59.973Z,18.20
2018-01-23T00:04:28.034Z,18.10
2018-01-23T00:06:56.094Z,18.00
2018-01-23T00:09:24.012Z,18.00
2018-01-23T00:11:52.814Z,17.90
2018-01-23T00:14:20.770Z,17.90
2018-01-23T00:16:49.483Z,17.90
2018-01-23T00:19:17.537Z,17.90
2018-01-23T00:21:46.191Z,17.70
2018-01-23T00:24:14.161Z,17.70
2018-01-23T00:26:42.353Z,17.80
2018-01-23T00:29:10.995Z,17.70
2018-01-23T00:31:38.931Z,17.70
2018-01-23T00:34:07.900Z,17.70
2018-01-23T00:36:35.930Z,17.60
2018-01-23T00:39:08.054Z,17.70
2018-01-23T00:41:36.420Z,17.70
2018-01-23T00:44:04.385Z,17.70
2018-01-23T00:46:32.411Z,17.70
2018-01-23T00:49:00.465Z,17.60
2018-01-23T00:51:28.404Z,17.50
2018-01-23T00:53:56.323Z,17.50
2018-01-23T00:56:24.427Z,17.40
2018-01-23T00:58:52.347Z,17.30
2018-01-23T01:01:20.339Z,17.30
2018-01-23T01:03:48.387Z,17.40
2018-01-23T01:06:16.305Z,17.40
2018-01-23T01:08:44.285Z,17.50
2018-01-23T01:11:12.347Z,17.50
2018-01-23T01:13:40.311Z,17.50
2018-01-23T01:16:08.277Z,17.50
2018-01-23T01:18:36.318Z,17.50
2018-01-23T01:21:04.231Z,17.50
2018-01-23T01:23:32.145Z,17.50
2018-01-23T01:26:00.953Z,17.50
2018-01-23T01:28:28.913Z,17.40
2018-01-23T01:30:56.846Z,17.40
2018-01-23T01:33:24.917Z,17.30
2018-01-23T01:35:52.957Z,17.40
2018-01-23T01:38:20.883Z,17.20
2018-01-23T01:40:49.842Z,17.20
2018-01-23T01:43:17.755Z,17.20
2018-01-23T01:45:45.675Z,17.20
2018-01-23T01:48:13.729Z,17.20
2018-01-23T01:50:41.684Z,17.30
2018-01-23T01:53:09.671Z,17.40
2018-01-23T01:55:37.759Z,17.20
2018-01-23T01:58:05.648Z,17.20
2018-01-23T02:00:33.593Z,17.20
2018-01-23T02:03:01.627Z,17.20
2018-01-23T02:05:29.573Z,17.10
2018-01-23T02:07:58.265Z,17.10
2018-01-23T02:10:27.123Z,17.00
2018-01-23T02:12:55.078Z,17.10
2018-01-23T02:28:23.781Z,17.20
2018-01-23T02:30:51.741Z,17.20
2018-01-23T02:33:19.682Z,17.00
2018-01-23T02:35:47.751Z,16.90
2018-01-23T02:38:15.826Z,16.90
2018-01-23T02:40:43.757Z,16.80
2018-01-23T02:43:12.538Z,16.90
2018-01-23T02:45:40.477Z,16.90
2018-01-23T02:48:08.393Z,16.90
2018-01-23T02:50:37.178Z,16.80
2018-01-23T02:53:05.841Z,16.90
2018-01-23T02:55:33.770Z,16.90
2018-01-23T02:58:01.883Z,16.80
2018-01-23T03:00:29.788Z,16.90
2018-01-23T03:02:58.443Z,16.90
2018-01-23T03:05:26.517Z,16.90
2018-01-23T03:07:54.414Z,17.00
2018-01-23T03:10:23.081Z,17.00
2018-01-23T03:12:51.163Z,17.00
2018-01-23T03:15:19.812Z,17.10
2018-01-23T03:17:47.731Z,17.00
2018-01-23T03:20:18.177Z,17.10
2018-01-23T03:22:46.923Z,17.10
2018-01-23T03:25:14.909Z,17.10
2018-01-23T03:27:43.705Z,17.20
2018-01-23T03:30:12.386Z,17.30
2018-01-23T03:32:41.069Z,17.40
2018-01-23T03:35:09.147Z,17.30
2018-01-23T03:37:37.813Z,17.40
2018-01-23T03:40:05.891Z,17.40
2018-01-23T03:42:33.927Z,17.50
2018-01-23T03:45:01.852Z,17.70
2018-01-23T03:47:30.557Z,18.00
2018-01-23T03:49:58.595Z,18.00
2018-01-23T03:52:26.509Z,18.10
2018-01-23T03:54:54.427Z,18.20
2018-01-23T03:57:22.490Z,18.40
2018-01-23T03:59:50.441Z,19.20
2018-01-23T04:02:18.379Z,21.20
2018-01-23T04:04:46.442Z,22.70
2018-01-23T04:07:15.217Z,24.20
2018-01-23T04:09:43.887Z,24.70
2018-01-23T04:12:11.955Z,24.70
2018-01-23T04:14:39.882Z,23.80
2018-01-23T04:17:07.876Z,22.60
2018-01-23T04:19:35.937Z,21.70
2018-01-23T04:22:03.863Z,21.30
2018-01-23T04:24:32.510Z,20.90
2018-01-23T04:27:00.589Z,20.90
2018-01-23T04:29:28.527Z,20.80
2018-01-23T04:31:56.437Z,20.90
2018-01-23T04:34:24.647Z,20.90
2018-01-23T04:36:53.533Z,21.30
2018-01-23T04:39:22.204Z,21.40
2018-01-23T04:41:51.175Z,21.60
2018-01-23T04:44:19.098Z,21.60
2018-01-23T04:46:47.093Z,21.70
2018-01-23T04:49:15.158Z,21.90
2018-01-23T04:51:43.102Z,22.00
2018-01-23T04:54:11.817Z,22.40
2018-01-23T04:56:39.918Z,22.40
2018-01-23T04:59:08.035Z,22.40
2018-01-23T05:01:36.713Z,22.50
2018-01-23T05:04:05.524Z,22.30
2018-01-23T05:06:33.531Z,22.30
2018-01-23T05:09:01.762Z,22.10
2018-01-23T05:11:29.988Z,22.30
2018-01-23T05:13:58.007Z,22.40
2018-01-23T05:16:26.018Z,22.60
2018-01-23T05:18:54.090Z,22.70
2018-01-23T05:21:22.011Z,22.90
2018-01-23T05:23:50.685Z,22.90
2018-01-23T05:26:18.837Z,22.90
2018-01-23T05:28:46.763Z,23.10
2018-01-23T05:31:14.681Z,23.30
2018-01-23T05:33:42.761Z,23.40
2018-01-23T05:36:10.827Z,23.80
2018-01-23T05:38:38.811Z,24.10
2018-01-23T05:41:06.873Z,24.20
2018-01-23T05:43:34.963Z,24.00
2018-01-23T05:46:02.877Z,24.10
2018-01-23T05:48:30.955Z,24.00
2018-01-23T05:50:58.881Z,24.10
2018-01-23T05:53:27.573Z,24.40
2018-01-23T05:55:56.370Z,24.60
2018-01-23T05:58:25.187Z,24.80
2018-01-23T06:00:53.124Z,24.80
2018-01-23T06:03:21.947Z,24.60
2018-01-23T06:05:49.881Z,24.60
2018-01-23T06:08:18.577Z,25.00
2018-01-23T06:10:47.383Z,25.10
2018-01-23T06:13:15.389Z,25.10
2018-01-23T06:15:43.903Z,25.30
2018-01-23T06:18:12.733Z,25.40
2018-01-23T06:20:40.681Z,25.40
2018-01-23T06:23:09.453Z,25.30
2018-01-23T06:25:37.503Z,25.20
2018-01-23T06:28:05.609Z,25.10
2018-01-23T06:30:34.298Z,25.30
2018-01-23T06:33:03.118Z,25.10
2018-01-23T06:35:31.043Z,25.10
2018-01-23T06:37:58.987Z,25.20
2018-01-23T06:40:27.060Z,25.00
2018-01-23T06:42:55.017Z,24.90
2018-01-23T06:45:23.077Z,25.20
2018-01-23T06:47:51.113Z,25.70
2018-01-23T06:50:19.087Z,26.20
2018-01-23T06:52:47.785Z,26.30
2018-01-23T06:55:16.585Z,26.10
2018-01-23T06:57:44.507Z,26.00
2018-01-23T07:00:12.438Z,26.10
2018-01-23T07:02:40.489Z,26.10
2018-01-23T07:05:08.516Z,26.00
2018-01-23T07:07:36.472Z,26.00
2018-01-23T07:10:04.578Z,25.90
2018-01-23T07:12:33.236Z,25.80
2018-01-23T07:15:01.168Z,25.80
2018-01-23T07:17:29.245Z,25.80
2018-01-23T07:19:57.153Z,25.90
2018-01-23T07:22:25.062Z,25.80
2018-01-23T07:24:53.843Z,26.00
2018-01-23T07:27:22.511Z,26.00
2018-01-23T07:29:50.443Z,26.00
2018-01-23T07:32:18.498Z,25.90
2018-01-23T07:34:46.437Z,26.00
2018-01-23T07:37:15.149Z,26.20
2018-01-23T07:39:43.271Z,26.20
2018-01-23T07:42:11.198Z,26.20
2018-01-23T07:44:39.134Z,26.00
2018-01-23T07:47:08.149Z,25.80
2018-01-23T07:49:36.801Z,25.70
2018-01-23T07:52:04.738Z,25.70
2018-01-23T07:54:32.791Z,25.90
2018-01-23T07:57:00.768Z,25.80
2018-01-23T07:59:28.725Z,25.60
2018-01-23T08:01:56.781Z,25.60
2018-01-23T08:04:25.435Z,25.80
2018-01-23T08:06:53.370Z,25.70
2018-01-23T08:09:21.451Z,25.70
2018-01-23T08:11:49.375Z,25.40
2018-01-23T08:14:18.057Z,25.60
2018-01-23T08:16:46.922Z,25.40
2018-01-23T08:19:14.847Z,25.40
2018-01-23T08:21:42.763Z,25.30
2018-01-23T08:24:10.989Z,25.50
2018-01-23T08:26:39.161Z,25.80
2018-01-23T08:29:07.850Z,26.20
2018-01-23T08:31:35.907Z,26.20
2018-01-23T08:34:04.818Z,26.40
2018-01-23T08:36:32.819Z,26.40
2018-01-23T08:39:00.891Z,26.30
2018-01-23T08:41:28.822Z,26.50
2018-01-23T08:43:57.463Z,26.40
2018-01-23T08:46:25.553Z,26.40
2018-01-23T08:48:53.684Z,26.40
2018-01-23T08:51:21.617Z,26.30
2018-01-23T08:53:50.407Z,26.40
2018-01-23T08:56:19.111Z,26.40
2018-01-23T08:58:47.032Z,26.30
2018-01-23T09:01:15.114Z,26.20
2018-01-23T09:03:43.090Z,26.20
2018-01-23T09:06:11.118Z,26.20
2018-01-23T09:08:39.167Z,26.40
2018-01-23T09:11:07.825Z,26.40
2018-01-23T09:13:36.501Z,26.20
2018-01-23T09:16:04.573Z,26.20
2018-01-23T09:18:32.516Z,26.40
2018-01-23T09:21:00.425Z,26.40
2018-01-23T09:23:28.513Z,26.30
2018-01-23T09:25:58.033Z,26.30
2018-01-23T09:28:25.947Z,26.30
2018-01-23T09:30:54.014Z,26.20
2018-01-23T09:33:21.950Z,26.30
2018-01-23T09:35:49.875Z,26.20
2018-01-23T09:38:17.933Z,26.20
2018-01-23T09:40:45.879Z,26.20
2018-01-23T09:43:13.795Z,26.30
2018-01-23T09:45:41.951Z,26.30
2018-01-23T09:48:09.909Z,26.40
2018-01-23T09:50:37.964Z,26.30
2018-01-23T09:53:06.031Z,26.10
2018-01-23T09:55:33.974Z,26.10
2018-01-23T09:58:02.645Z,26.10
2018-01-23T10:00:30.746Z,26.10
2018-01-23T10:02:58.665Z,25.90
2018-01-23T10:05:26.625Z,26.10
2018-01-23T10:07:54.700Z,26.20
2018-01-23T10:10:22.611Z,26.00
2018-01-23T10:12:51.269Z,25.80
2018-01-23T10:15:19.441Z,25.80
2018-01-23T10:17:47.370Z,25.80
2018-01-23T10:20:15.308Z,25.70
2018-01-23T10:22:44.118Z,25.60
2018-01-23T10:25:12.057Z,25.60
2018-01-23T10:27:40.823Z,25.70
2018-01-23T10:30:08.914Z,25.70
2018-01-23T10:32:36.863Z,25.80
2018-01-23T10:35:04.809Z,25.80
2018-01-23T10:37:32.878Z,25.70
2018-01-23T10:40:00.830Z,25.70
2018-01-23T10:42:28.804Z,25.70
2018-01-23T10:44:56.852Z,25.70
2018-01-23T10:47:25.511Z,25.40
2018-01-23T10:49:53.457Z,25.40
2018-01-23T10:52:21.713Z,25.40
2018-01-23T10:54:49.759Z,25.40
2018-01-23T10:57:18.489Z,25.50
2018-01-23T10:59:46.544Z,25.40
2018-01-23T11:02:14.488Z,25.40
2018-01-23T11:04:43.180Z,25.20
2018-01-23T11:07:12.047Z,25.20
2018-01-23T11:09:39.947Z,25.20
2018-01-23T11:12:08.629Z,25.20
2018-01-23T11:14:37.527Z,25.20
2018-01-23T11:17:06.270Z,25.00
2018-01-23T11:19:34.194Z,25.00
2018-01-23T11:22:02.268Z,24.80
2018-01-23T11:24:30.189Z,24.90
2018-01-23T11:26:58.359Z,25.00
2018-01-23T11:29:26.419Z,24.80
2018-01-23T11:31:54.968Z,24.60
2018-01-23T11:34:22.915Z,24.60
2018-01-23T11:36:52.157Z,24.70
2018-01-23T11:39:22.945Z,24.60
2018-01-23T11:41:51.293Z,24.50
2018-01-23T11:44:19.320Z,24.60
2018-01-23T11:46:48.039Z,24.60
2018-01-23T11:49:15.985Z,24.50
2018-01-23T11:51:44.036Z,24.50
2018-01-23T11:54:12.843Z,24.30
2018-01-23T11:56:40.839Z,24.30
2018-01-23T11:59:08.899Z,24.40
2018-01-23T12:01:37.003Z,24.40
2018-01-23T12:04:05.014Z,24.30
2018-01-23T12:06:33.985Z,24.40
2018-01-23T12:09:01.902Z,24.40
2018-01-23T12:11:30.103Z,24.40
2018-01-23T12:13:58.173Z,24.20
2018-01-23T12:16:26.139Z,24.10
2018-01-23T12:18:54.090Z,24.10
2018-01-23T12:21:22.148Z,24.00
2018-01-23T12:23:50.842Z,24.10
2018-01-23T12:26:18.843Z,24.10
2018-01-23T12:28:46.923Z,24.10
2018-01-23T12:31:14.861Z,24.10
2018-01-23T12:33:42.803Z,24.10
2018-01-23T12:36:10.891Z,24.20
2018-01-23T12:38:39.559Z,24.40
2018-01-23T12:41:07.496Z,24.40
2018-01-23T12:43:35.574Z,24.50
2018-01-23T12:46:03.553Z,24.50
2018-01-23T12:48:31.463Z,24.30
2018-01-23T12:51:00.267Z,24.40
2018-01-23T12:53:28.206Z,24.40
2018-01-23T12:55:57.249Z,24.40
2018-01-23T12:58:25.299Z,24.30
2018-01-23T13:00:53.257Z,24.30
2018-01-23T13:03:21.941Z,24.30
2018-01-23T13:05:50.806Z,24.10
2018-01-23T13:08:18.745Z,24.10
2018-01-23T13:10:46.663Z,24.10
2018-01-23T13:13:15.469Z,24.00
2018-01-23T13:15:43.399Z,24.00
2018-01-23T13:18:11.307Z,24.00
2018-01-23T13:20:40.154Z,23.80
2018-01-23T13:23:08.080Z,23.90
2018-01-23T13:25:36.013Z,23.90
2018-01-23T13:28:04.327Z,23.70
2018-01-23T13:30:32.249Z,23.80
2018-01-23T13:33:00.193Z,23.70
2018-01-23T13:35:28.261Z,23.60
2018-01-23T13:37:57.088Z,23.60
2018-01-23T13:40:25.033Z,23.50
2018-01-23T13:42:53.126Z,23.50
2018-01-23T13:45:21.087Z,23.50
2018-01-23T13:47:49.030Z,23.50
2018-01-23T13:50:17.097Z,23.40
2018-01-23T13:52:45.023Z,23.30
2018-01-23T13:55:12.985Z,23.20
2018-01-23T13:57:41.052Z,23.20
2018-01-23T14:00:09.023Z,23.10
2018-01-23T14:02:36.979Z,23.10
2018-01-23T14:05:05.195Z,23.20
2018-01-23T14:07:33.871Z,22.90
2018-01-23T14:10:01.803Z,22.90
2018-01-23T14:12:29.863Z,23.00
2018-01-23T14:14:57.806Z,23.00
2018-01-23T14:17:25.733Z,23.10
2018-01-23T14:19:53.805Z,23.00
2018-01-23T14:22:21.845Z,22.90
2018-01-23T14:24:49.815Z,22.90
2018-01-23T14:27:17.882Z,22.70
2018-01-23T14:29:45.875Z,22.80
2018-01-23T14:32:13.809Z,22.80
2018-01-23T14:34:41.921Z,22.70
2018-01-23T14:37:09.863Z,22.70
2018-01-23T14:39:37.789Z,22.70
2018-01-23T14:42:05.831Z,22.60
2018-01-23T14:44:33.741Z,22.70
2018-01-23T14:47:04.086Z,22.70
2018-01-23T14:49:33.081Z,22.70
2018-01-23T14:52:01.003Z,22.70
2018-01-23T14:54:28.936Z,22.70
2018-01-23T14:56:57.049Z,22.60
2018-01-23T14:59:25.089Z,22.50
2018-01-23T15:01:53.031Z,22.50
2018-01-23T15:04:21.089Z,22.50
2018-01-23T15:06:49.841Z,22.40
2018-01-23T15:09:18.797Z,22.40
2018-01-23T15:11:46.832Z,22.40
2018-01-23T15:14:14.769Z,22.50
2018-01-23T15:16:43.562Z,22.40
2018-01-23T15:19:11.642Z,22.50
2018-01-23T15:21:39.608Z,22.40
2018-01-23T15:24:07.578Z,22.40
2018-01-23T15:26:35.652Z,22.50
2018-01-23T15:29:03.597Z,22.50
2018-01-23T15:31:31.529Z,22.40
2018-01-23T15:34:00.313Z,22.20
2018-01-23T15:36:29.062Z,22.30
2018-01-23T15:38:57.008Z,22.30
2018-01-23T15:41:25.056Z,22.30
2018-01-23T15:43:53.711Z,22.40
2018-01-23T15:46:21.748Z,22.40
2018-01-23T15:48:49.858Z,22.40
2018-01-23T15:51:17.789Z,22.40
2018-01-23T15:53:45.720Z,22.40
2018-01-23T15:56:13.901Z,22.40
2018-01-23T15:58:42.555Z,22.50
2018-01-23T16:01:10.627Z,22.40
2018-01-23T16:03:38.711Z,22.40
2018-01-23T16:06:06.777Z,22.40
2018-01-23T16:08:34.830Z,22.40
2018-01-23T16:11:02.927Z,22.40
2018-01-23T16:13:30.864Z,22.40
2018-01-23T16:15:58.844Z,22.40
2018-01-23T16:18:26.929Z,22.40
2018-01-23T16:20:54.871Z,22.40
2018-01-23T16:23:22.785Z,22.40
2018-01-23T16:25:50.852Z,22.40
2018-01-23T16:28:18.802Z,22.40
2018-01-23T16:30:46.733Z,22.40
2018-01-23T16:33:14.783Z,22.40
2018-01-23T16:35:43.545Z,22.20
2018-01-23T16:38:11.637Z,22.20
2018-01-23T16:40:40.596Z,22.30
2018-01-23T16:43:08.546Z,22.20
2018-01-23T16:45:36.619Z,22.20
2018-01-23T16:48:04.900Z,22.20
2018-01-23T16:50:32.857Z,22.30
2018-01-23T16:53:00.813Z,22.20
2018-01-23T16:55:28.789Z,22.10
2018-01-23T16:57:56.699Z,22.10
2018-01-23T17:00:24.657Z,22.10
2018-01-23T17:02:52.881Z,22.10
2018-01-23T17:05:21.551Z,22.00
2018-01-23T17:07:49.486Z,22.00
2018-01-23T17:10:17.549Z,22.00
2018-01-23T17:12:45.501Z,21.90
2018-01-23T17:15:13.533Z,21.90
2018-01-23T17:17:41.609Z,22.00
2018-01-23T17:20:09.553Z,21.90
2018-01-23T17:22:37.495Z,21.90
2018-01-23T17:25:05.921Z,21.90
2018-01-23T17:27:34.230Z,22.00
2018-01-23T17:30:03.947Z,21.80
2018-01-23T17:32:32.346Z,21.80
2018-01-23T17:35:00.447Z,21.80
2018-01-23T17:37:28.388Z,21.70
2018-01-23T17:39:56.451Z,21.70
2018-01-23T17:42:24.369Z,21.70
2018-01-23T17:44:52.297Z,21.70
2018-01-23T17:47:20.367Z,21.60
2018-01-23T17:49:48.271Z,21.60
2018-01-23T17:52:16.222Z,21.50
2018-01-23T17:54:44.301Z,21.40
2018-01-23T17:57:12.283Z,21.30
2018-01-23T17:59:40.230Z,21.40
2018-01-23T18:02:08.353Z,21.40
2018-01-23T18:04:36.395Z,21.50
2018-01-23T18:07:04.371Z,21.40
2018-01-23T18:09:32.462Z,21.40
2018-01-23T18:12:01.286Z,21.30
2018-01-23T18:14:29.383Z,21.30
2018-01-23T18:16:57.497Z,21.20
2018-01-23T18:19:26.183Z,21.20
2018-01-23T18:21:54.123Z,21.20
2018-01-23T18:24:22.198Z,21.10
2018-01-23T18:26:50.156Z,21.10
2018-01-23T18:29:18.075Z,21.20
2018-01-23T18:31:46.129Z,21.10
2018-01-23T18:34:14.074Z,20.90
2018-01-23T18:36:42.096Z,20.90
2018-01-23T18:39:10.276Z,21.00
2018-01-23T18:41:38.969Z,21.10
2018-01-23T18:44:07.632Z,21.00
2018-01-23T18:46:35.680Z,21.00
2018-01-23T18:49:03.615Z,21.00
2018-01-23T18:51:31.545Z,21.00
2018-01-23T18:53:59.641Z,20.90
2018-01-23T18:56:28.371Z,20.90
2018-01-23T18:58:56.302Z,20.90
2018-01-23T19:01:25.091Z,20.90
2018-01-23T19:03:53.870Z,20.90
2018-01-23T19:06:22.819Z,20.80
2018-01-23T19:08:50.889Z,20.80
2018-01-23T19:11:18.792Z,20.80
2018-01-23T19:13:46.707Z,20.80
2018-01-23T19:16:14.781Z,20.60
2018-01-23T19:18:42.693Z,20.60
2018-01-23T19:21:10.603Z,20.60
2018-01-23T19:23:38.696Z,20.70
2018-01-23T19:26:06.691Z,20.70
2018-01-23T19:28:34.628Z,20.70
2018-01-23T19:31:02.672Z,20.70
2018-01-23T19:33:31.348Z,20.70
2018-01-23T19:35:59.378Z,20.60
2018-01-23T19:38:27.435Z,20.60
2018-01-23T19:40:55.471Z,20.50
2018-01-23T19:43:23.410Z,20.30
2018-01-23T19:45:51.524Z,20.40
2018-01-23T19:48:20.171Z,20.30
2018-01-23T19:50:48.097Z,20.30
2018-01-23T19:53:16.141Z,20.10
2018-01-23T19:55:44.063Z,20.10
2018-01-23T19:58:12.018Z,20.10
2018-01-23T20:00:40.110Z,20.20
2018-01-23T20:03:08.041Z,20.10
2018-01-23T20:05:36.739Z,20.20
2018-01-23T20:08:05.070Z,20.20
2018-01-23T20:10:32.997Z,20.20
2018-01-23T20:13:00.941Z,20.10
2018-01-23T20:15:29.805Z,20.00
2018-01-23T20:17:57.715Z,20.00
2018-01-23T20:20:26.364Z,19.90
2018-01-23T20:22:54.425Z,19.90
2018-01-23T20:25:22.364Z,19.90
2018-01-23T20:27:50.365Z,19.80
2018-01-23T20:30:18.447Z,19.70
2018-01-23T20:32:46.363Z,19.70
2018-01-23T20:35:14.275Z,19.70
2018-01-23T20:37:42.343Z,19.80
2018-01-23T20:40:10.710Z,19.70
2018-01-23T20:42:38.631Z,19.80
2018-01-23T20:45:08.129Z,19.60
2018-01-23T20:47:36.595Z,19.60
2018-01-23T20:50:05.719Z,19.50
2018-01-23T20:52:35.270Z,19.50
2018-01-23T20:55:03.621Z,19.50
2018-01-23T20:57:32.313Z,19.40
2018-01-23T21:00:00.577Z,19.40
2018-01-23T21:02:29.659Z,19.40
2018-01-23T21:04:58.841Z,19.40
2018-01-23T21:07:28.443Z,19.30
2018-01-23T21:09:56.502Z,19.30
2018-01-23T21:12:24.984Z,19.30
2018-01-23T21:14:53.181Z,19.20
2018-01-23T21:17:21.397Z,19.30
2018-01-23T21:19:49.461Z,19.40
2018-01-23T21:22:18.172Z,19.40
2018-01-23T21:24:46.476Z,19.30
2018-01-23T21:27:15.015Z,19.30
2018-01-23T21:29:44.363Z,19.20
2018-01-23T21:32:12.829Z,19.20
2018-01-23T21:34:41.879Z,19.00
2018-01-23T21:37:10.570Z,19.00
2018-01-23T21:39:39.405Z,19.00
2018-01-23T21:42:07.877Z,19.00
2018-01-23T21:44:36.333Z,19.00
2018-01-23T21:47:05.187Z,19.00
2018-01-23T21:49:34.577Z,19.10
2018-01-23T21:52:02.945Z,19.20
2018-01-23T21:54:31.774Z,19.10
2018-01-23T21:56:59.986Z,18.90
2018-01-23T21:59:28.457Z,18.90
2018-01-23T22:01:57.849Z,19.00
2018-01-23T22:04:26.887Z,19.00
2018-01-23T22:06:55.857Z,19.00
2018-01-23T22:09:24.933Z,18.90
2018-01-23T22:11:53.773Z,19.00
2018-01-23T22:14:21.956Z,18.90
2018-01-23T22:16:50.333Z,18.90
2018-01-23T22:19:18.989Z,18.80
2018-01-23T22:21:47.182Z,18.80
2018-01-23T22:24:15.270Z,18.90
2018-01-23T22:26:43.919Z,18.80
2018-01-23T22:29:12.091Z,18.80
2018-01-23T22:31:41.173Z,18.80
2018-01-23T22:34:09.227Z,18.70
2018-01-23T22:36:37.564Z,18.80
2018-01-23T22:39:06.195Z,18.80
2018-01-23T22:41:35.497Z,18.80
2018-01-23T22:44:03.749Z,18.80
2018-01-23T22:46:31.845Z,18.70
2018-01-23T22:49:00.808Z,18.70
2018-01-23T22:51:29.321Z,18.60
2018-01-23T22:53:57.833Z,18.70
2018-01-23T22:56:27.293Z,18.70
2018-01-23T22:58:55.919Z,18.70
2018-01-23T23:01:25.006Z,18.60
2018-01-23T23:03:53.466Z,18.60
2018-01-23T23:06:23.046Z,18.60
2018-01-23T23:08:52.434Z,18.60
2018-01-23T23:11:21.113Z,18.60
2018-01-23T23:13:50.053Z,18.60
2018-01-23T23:16:18.137Z,18.50
2018-01-23T23:18:47.341Z,18.40
2018-01-23T23:21:15.568Z,18.40
2018-01-23T23:23:43.681Z,18.40
2018-01-23T23:26:14.037Z,18.30
2018-01-23T23:28:43.223Z,18.20
2018-01-23T23:31:12.019Z,18.20
2018-01-23T23:33:40.959Z,18.20
2018-01-23T23:36:09.399Z,18.10
2018-01-23T23:38:38.653Z,18.00
2018-01-23T23:41:06.951Z,18.10
2018-01-23T23:43:35.034Z,17.90
2018-01-23T23:46:02.953Z,17.90
2018-01-23T23:48:31.176Z,18.00
2018-01-23T23:51:00.469Z,17.90
2018-01-23T23:53:30.002Z,17.80
2018-01-23T23:55:58.665Z,17.70
2018-01-23T23:58:27.609Z,17.80
